NKS9918 KMIA-MUHA
Flight info
| Callsign | NKS9918 |
|---|---|
| Flight time | N/A |
| Altitude | 30000 |
| Route | GLADZ4 LULLS Y196 CANOA ENTRY5 |
| Aircraft | A20N/M-SDE2E3FGHIRWXY/LB1 |
Departure
| Time | 2026-05-03 22:02 |
|---|---|
| Airport | Miami International Airport (KMIA) |
Arrival
| Time | N/A |
|---|---|
| Airport | José Martí International Airport (MUHA) |
| Time | Latitude | Longitude | Altitude | Speed | Heading |
|---|---|---|---|---|---|
| 2026-05-03 21:38 | 25.79563 | -80.28474 | 12 ft | 0 kts | 118° |
| 2026-05-03 21:42 | 25.79564 | -80.28476 | 12 ft | 0 kts | 118° |
| 2026-05-03 21:42 | 25.79566 | -80.28481 | 12 ft | 2 kts | 118° |
| 2026-05-03 21:43 | 25.79576 | -80.28501 | 12 ft | 4 kts | 118° |
| 2026-05-03 21:43 | 25.79587 | -80.28535 | 12 ft | 6 kts | 81° |
| 2026-05-03 21:43 | 25.79564 | -80.28576 | 12 ft | 7 kts | 27° |
| 2026-05-03 21:43 | 25.79533 | -80.28584 | 12 ft | 0 kts | 5° |
| 2026-05-03 21:47 | 25.79562 | -80.28581 | 12 ft | 7 kts | 5° |
| 2026-05-03 21:48 | 25.79626 | -80.28600 | 12 ft | 9 kts | 293° |
| 2026-05-03 21:48 | 25.79621 | -80.28687 | 12 ft | 10 kts | 264° |
| 2026-05-03 21:48 | 25.79620 | -80.28781 | 12 ft | 11 kts | 292° |
| 2026-05-03 21:48 | 25.79706 | -80.28812 | 12 ft | 12 kts | 359° |
| 2026-05-03 21:49 | 25.79804 | -80.28815 | 12 ft | 13 kts | 358° |
| 2026-05-03 21:49 | 25.79910 | -80.28818 | 12 ft | 13 kts | 359° |
| 2026-05-03 21:49 | 25.80007 | -80.28853 | 12 ft | 13 kts | 297° |
| 2026-05-03 21:49 | 25.80009 | -80.28977 | 12 ft | 14 kts | 268° |
| 2026-05-03 21:50 | 25.80006 | -80.29090 | 12 ft | 14 kts | 268° |
| 2026-05-03 21:50 | 25.80000 | -80.29221 | 12 ft | 24 kts | 268° |
| 2026-05-03 21:50 | 25.79990 | -80.29446 | 12 ft | 28 kts | 268° |
| 2026-05-03 21:50 | 25.79981 | -80.29659 | 12 ft | 27 kts | 266° |
| 2026-05-03 21:51 | 25.79975 | -80.29820 | 12 ft | 14 kts | 267° |
| 2026-05-03 21:51 | 25.79970 | -80.29929 | 12 ft | 14 kts | 267° |
| 2026-05-03 21:51 | 25.79965 | -80.30045 | 12 ft | 15 kts | 268° |
| 2026-05-03 21:51 | 25.79989 | -80.30115 | 12 ft | 0 kts | 328° |
| 2026-05-03 21:53 | 25.79992 | -80.30117 | 12 ft | 8 kts | 330° |
| 2026-05-03 21:53 | 25.80076 | -80.30058 | 12 ft | 15 kts | 91° |
| 2026-05-03 21:53 | 25.80077 | -80.30023 | 12 ft | 0 kts | 88° |
| 2026-05-03 22:01 | 25.80077 | -80.30022 | 12 ft | 0 kts | 88° |
| 2026-05-03 22:02 | 25.80096 | -80.29676 | 12 ft | 87 kts | 86° |
| 2026-05-03 22:02 | 25.80129 | -80.28761 | 12 ft | 154 kts | 87° |
| 2026-05-03 22:02 | 25.80177 | -80.27537 | 203 ft | 188 kts | 87° |
| 2026-05-03 22:02 | 25.80260 | -80.26134 | 617 ft | 210 kts | 82° |
| 2026-05-03 22:03 | 25.80526 | -80.24436 | 1194 ft | 236 kts | 78° |
| 2026-05-03 22:03 | 25.80783 | -80.22630 | 2121 ft | 246 kts | 86° |
| 2026-05-03 22:03 | 25.80641 | -80.20725 | 3054 ft | 256 kts | 95° |
| 2026-05-03 22:03 | 25.80724 | -80.18745 | 3920 ft | 268 kts | 73° |
| 2026-05-03 22:04 | 25.81670 | -80.16904 | 4545 ft | 290 kts | 43° |
| 2026-05-03 22:04 | 25.83484 | -80.15749 | 4902 ft | 320 kts | 14° |
| 2026-05-03 22:04 | 25.85814 | -80.15467 | 4973 ft | 359 kts | 359° |
| 2026-05-03 22:04 | 25.88475 | -80.15640 | 5094 ft | 394 kts | 351° |
| 2026-05-03 22:05 | 25.91148 | -80.16137 | 6193 ft | 382 kts | 348° |
| 2026-05-03 22:05 | 25.93651 | -80.16766 | 6090 ft | 360 kts | 340° |
| 2026-05-03 22:05 | 25.95930 | -80.17780 | 5963 ft | 340 kts | 328° |
| 2026-05-03 22:05 | 25.97730 | -80.19346 | 5845 ft | 320 kts | 310° |
| 2026-05-03 22:06 | 25.98909 | -80.21313 | 5722 ft | 302 kts | 292° |